createdAt,value
2017-11-23T00:00:21.246Z,14.90
2017-11-23T00:02:47.681Z,16.83
2017-11-23T00:05:14.117Z,13.30
2017-11-23T00:07:40.550Z,15.03
2017-11-23T00:10:06.986Z,14.70
2017-11-23T00:12:34.137Z,18.57
2017-11-23T00:15:00.572Z,17.13
2017-11-23T00:17:27.006Z,16.20
2017-11-23T00:19:53.441Z,16.70
2017-11-23T00:22:19.874Z,17.37
2017-11-23T00:24:46.309Z,17.10
2017-11-23T00:27:12.749Z,18.70
2017-11-23T00:29:39.891Z,22.30
2017-11-23T00:32:06.332Z,19.93
2017-11-23T00:34:32.699Z,27.70
2017-11-23T00:36:59.069Z,24.17
2017-11-23T00:39:25.542Z,20.90
2017-11-23T00:41:52.078Z,19.57
2017-11-23T00:44:18.505Z,15.10
2017-11-23T00:46:45.557Z,18.77
2017-11-23T00:49:11.987Z,16.60
2017-11-23T00:51:38.433Z,16.47
2017-11-23T00:54:04.866Z,13.97
2017-11-23T00:56:31.290Z,14.50
2017-11-23T00:58:57.742Z,15.60
2017-11-23T01:01:24.264Z,14.23
2017-11-23T01:03:51.402Z,19.40
2017-11-23T01:06:17.853Z,18.67
2017-11-23T01:08:44.283Z,16.03
2017-11-23T01:11:10.717Z,13.80
2017-11-23T01:13:37.152Z,16.07
2017-11-23T01:16:03.596Z,19.40
2017-11-23T01:18:30.032Z,18.80
2017-11-23T01:20:57.178Z,16.93
2017-11-23T01:23:23.505Z,17.77
2017-11-23T01:25:50.033Z,17.80
2017-11-23T01:28:16.477Z,17.10
2017-11-23T01:30:42.848Z,17.20
2017-11-23T01:33:09.210Z,17.57
2017-11-23T01:35:35.579Z,16.17
2017-11-23T01:38:02.821Z,15.00
2017-11-23T01:40:29.273Z,12.87
2017-11-23T01:42:55.699Z,13.00
2017-11-23T01:45:22.235Z,13.37
2017-11-23T01:47:48.671Z,12.63
2017-11-23T01:50:15.114Z,12.80
2017-11-23T01:52:41.541Z,13.03
2017-11-23T01:55:08.698Z,13.10
2017-11-23T01:57:35.138Z,13.07
2017-11-23T02:00:01.570Z,13.37
2017-11-23T02:02:27.996Z,11.93
2017-11-23T02:04:54.434Z,13.00
2017-11-23T02:07:20.866Z,13.27
2017-11-23T02:09:47.309Z,11.40
2017-11-23T02:12:14.552Z,12.70
2017-11-23T02:14:40.988Z,13.73
2017-11-23T02:17:07.422Z,13.00
2017-11-23T02:19:33.857Z,12.00
2017-11-23T02:22:00.303Z,12.50
2017-11-23T02:24:26.726Z,12.73
2017-11-23T02:26:53.161Z,13.20
2017-11-23T02:29:20.317Z,11.87
2017-11-23T02:31:46.749Z,11.40
2017-11-23T02:34:13.182Z,11.80
2017-11-23T02:36:39.505Z,11.77
2017-11-23T02:39:05.949Z,12.07
2017-11-23T02:41:32.383Z,12.50
2017-11-23T02:43:58.820Z,12.20
2017-11-23T02:46:26.080Z,13.03
2017-11-23T02:48:52.508Z,13.27
2017-11-23T02:51:18.948Z,14.60
2017-11-23T02:53:45.383Z,14.70
2017-11-23T02:56:11.816Z,14.67
2017-11-23T02:58:38.254Z,14.67
2017-11-23T03:01:04.652Z,15.93
2017-11-23T03:03:31.729Z,15.80
2017-11-23T03:05:58.265Z,14.60
2017-11-23T03:08:24.701Z,11.70
2017-11-23T03:10:51.146Z,12.90
2017-11-23T03:13:17.469Z,10.60
2017-11-23T03:15:44.005Z,10.60
2017-11-23T03:18:10.441Z,10.30
2017-11-23T03:20:37.490Z,10.23
2017-11-23T03:23:04.026Z,10.47
2017-11-23T03:25:30.459Z,10.40
2017-11-23T03:27:56.827Z,10.60
2017-11-23T03:30:23.227Z,10.17
2017-11-23T03:32:49.669Z,10.00
2017-11-23T03:35:16.095Z,10.80
2017-11-23T03:37:43.335Z,11.20
2017-11-23T03:40:09.787Z,11.83
2017-11-23T03:42:36.218Z,12.03
2017-11-23T03:45:02.652Z,11.73
2017-11-23T03:47:29.087Z,12.53
2017-11-23T03:49:55.520Z,14.03
2017-11-23T03:52:21.966Z,14.33
2017-11-23T03:54:49.108Z,15.37
2017-11-23T03:57:15.531Z,14.37
2017-11-23T03:59:41.912Z,14.57
2017-11-23T04:02:08.309Z,15.30
2017-11-23T04:04:34.744Z,17.50
2017-11-23T04:07:01.178Z,17.40
2017-11-23T04:09:27.551Z,18.03
2017-11-23T04:11:54.749Z,16.97
2017-11-23T04:14:21.199Z,17.60
2017-11-23T04:16:47.633Z,16.30
2017-11-23T04:19:14.069Z,17.23
2017-11-23T04:21:40.503Z,16.60
2017-11-23T04:24:06.939Z,15.77
2017-11-23T04:26:33.372Z,17.00
2017-11-23T04:29:00.524Z,15.70
2017-11-23T04:31:26.958Z,15.60
2017-11-23T04:33:53.393Z,15.80
2017-11-23T04:36:19.829Z,16.43
2017-11-23T04:38:46.262Z,15.67
2017-11-23T04:41:12.699Z,15.80
2017-11-23T04:43:39.141Z,18.63
2017-11-23T04:46:06.293Z,16.90
2017-11-23T04:48:32.716Z,18.40
2017-11-23T04:50:59.161Z,21.50
2017-11-23T04:53:25.594Z,22.87
2017-11-23T04:55:52.021Z,19.00
2017-11-23T04:58:18.456Z,20.37
2017-11-23T05:00:44.835Z,19.70
2017-11-23T05:03:12.050Z,21.40
2017-11-23T05:05:38.485Z,19.40
2017-11-23T05:08:04.911Z,21.93
2017-11-23T05:10:31.346Z,20.07
2017-11-23T05:12:57.781Z,20.53
2017-11-23T05:15:24.215Z,20.07
2017-11-23T05:17:50.650Z,19.40
2017-11-23T05:20:17.781Z,21.50
2017-11-23T05:22:44.222Z,20.37
2017-11-23T05:25:10.665Z,19.77
2017-11-23T05:27:37.105Z,17.30
2017-11-23T05:30:03.548Z,18.97
2017-11-23T05:32:30.179Z,22.97
2017-11-23T05:34:56.613Z,28.00
2017-11-23T05:37:23.772Z,26.53
2017-11-23T05:39:50.208Z,27.20
2017-11-23T05:42:16.635Z,27.03
2017-11-23T05:44:43.069Z,26.57
2017-11-23T05:47:09.502Z,28.57
2017-11-23T05:49:35.939Z,24.53
2017-11-23T05:52:02.372Z,22.67
2017-11-23T05:54:29.626Z,21.70
2017-11-23T05:56:56.061Z,23.70
2017-11-23T05:59:22.764Z,22.57
2017-11-23T06:01:49.238Z,21.43
2017-11-23T06:04:15.680Z,22.70
2017-11-23T06:06:42.211Z,29.60
2017-11-23T06:09:08.953Z,25.40
2017-11-23T06:11:35.389Z,24.20
2017-11-23T06:14:01.822Z,23.93
2017-11-23T06:16:28.375Z,22.00
2017-11-23T06:18:54.801Z,24.80
2017-11-23T06:21:22.033Z,28.20
2017-11-23T06:23:48.485Z,25.30
2017-11-23T06:26:14.924Z,25.90
2017-11-23T06:28:42.476Z,97.63
2017-11-23T06:31:08.919Z,96.03
2017-11-23T06:33:35.347Z,58.17
2017-11-23T06:36:01.716Z,47.77
2017-11-23T06:38:28.249Z,61.70
2017-11-23T06:40:54.650Z,50.40
2017-11-23T06:43:21.093Z,43.10
2017-11-23T06:45:47.421Z,40.40
2017-11-23T06:48:14.371Z,39.70
2017-11-23T06:50:40.807Z,39.10
2017-11-23T06:53:07.231Z,30.43
2017-11-23T06:55:33.672Z,32.83
2017-11-23T06:58:00.109Z,29.17
2017-11-23T07:00:26.572Z,27.73
2017-11-23T07:02:52.955Z,27.50
2017-11-23T07:05:19.404Z,24.23
2017-11-23T07:07:45.839Z,23.80
2017-11-23T07:10:12.795Z,19.60
2017-11-23T07:12:39.220Z,26.33
2017-11-23T07:15:05.656Z,27.77
2017-11-23T07:17:32.995Z,29.40
2017-11-23T07:19:59.446Z,25.30
2017-11-23T07:22:26.085Z,27.60
2017-11-23T07:24:52.794Z,27.20
2017-11-23T07:27:19.672Z,28.07
2017-11-23T07:29:46.220Z,30.20
2017-11-23T07:32:12.643Z,30.47
2017-11-23T07:34:39.319Z,31.17
2017-11-23T07:37:05.892Z,26.80
2017-11-23T07:39:32.357Z,23.50
2017-11-23T07:41:58.800Z,24.73
2017-11-23T07:44:25.257Z,25.67
2017-11-23T07:46:51.662Z,26.80
2017-11-23T07:49:18.405Z,32.27
2017-11-23T07:51:44.809Z,31.47
2017-11-23T07:54:11.278Z,35.27
2017-11-23T07:56:37.707Z,38.80
2017-11-23T07:59:04.141Z,36.97
2017-11-23T08:01:30.853Z,39.30
2017-11-23T08:03:57.326Z,39.23
2017-11-23T08:06:24.161Z,31.90
2017-11-23T08:08:50.596Z,37.20
2017-11-23T08:11:17.142Z,43.03
2017-11-23T08:13:44.285Z,13.97
2017-11-23T08:16:10.876Z,23.60
2017-11-23T08:18:37.336Z,23.20
2017-11-23T08:21:04.202Z,11.60
2017-11-23T08:23:31.021Z,18.53
2017-11-23T08:25:57.464Z,15.07
2017-11-23T08:28:24.019Z,10.13
2017-11-23T08:30:50.564Z,9.70
2017-11-23T08:33:17.200Z,9.70
2017-11-23T08:35:43.903Z,10.00
2017-11-23T08:38:10.382Z,10.70
2017-11-23T08:40:36.853Z,10.90
2017-11-23T08:43:04.295Z,10.30
2017-11-23T08:45:30.807Z,9.33
2017-11-23T08:47:57.979Z,21.67
2017-11-23T08:50:25.610Z,8.40
2017-11-23T08:52:52.473Z,10.00
2017-11-23T08:55:19.249Z,13.60
2017-11-23T08:57:46.301Z,8.50
2017-11-23T09:00:13.001Z,9.50
2017-11-23T09:02:39.430Z,9.03
2017-11-23T09:05:06.069Z,8.17
2017-11-23T09:07:32.716Z,12.47
2017-11-23T09:10:00.172Z,9.40
2017-11-23T09:12:27.218Z,9.27
2017-11-23T09:14:53.835Z,9.10
2017-11-23T09:17:20.504Z,8.33
2017-11-23T09:19:47.481Z,12.47
2017-11-23T09:22:14.293Z,8.00
2017-11-23T09:24:41.037Z,11.63
2017-11-23T09:27:08.290Z,18.00
2017-11-23T09:29:34.930Z,9.83
2017-11-23T09:32:01.568Z,9.67
2017-11-23T09:34:29.180Z,10.57
2017-11-23T09:36:55.817Z,9.63
2017-11-23T09:39:22.517Z,9.83
2017-11-23T09:41:49.451Z,13.93
2017-11-23T09:44:15.997Z,10.53
2017-11-23T09:46:42.727Z,9.27
2017-11-23T09:49:09.372Z,9.47
2017-11-23T09:51:35.871Z,8.10
2017-11-23T09:54:02.339Z,10.10
2017-11-23T09:56:29.081Z,8.70
2017-11-23T09:58:55.524Z,9.27
2017-11-23T10:01:21.950Z,8.97
2017-11-23T10:03:48.860Z,9.00
2017-11-23T10:06:15.331Z,8.83
2017-11-23T10:08:41.875Z,9.10
2017-11-23T10:11:08.787Z,10.30
2017-11-23T10:13:35.249Z,9.60
2017-11-23T10:16:01.669Z,9.50
2017-11-23T10:18:28.537Z,9.03
2017-11-23T10:20:55.073Z,9.93
2017-11-23T10:23:21.519Z,9.40
2017-11-23T10:25:48.240Z,9.13
2017-11-23T10:28:14.676Z,9.53
2017-11-23T10:30:41.213Z,10.07
2017-11-23T10:33:07.861Z,10.07
2017-11-23T10:35:34.290Z,9.13
2017-11-23T10:38:00.791Z,9.20
2017-11-23T10:40:27.363Z,8.97
2017-11-23T10:42:53.908Z,9.20
2017-11-23T10:45:20.429Z,9.93
2017-11-23T10:47:47.385Z,9.60
2017-11-23T10:50:13.927Z,9.53
2017-11-23T10:52:40.355Z,9.47
2017-11-23T10:55:07.198Z,10.03
2017-11-23T10:57:34.556Z,9.30
2017-11-23T11:00:01.101Z,9.70
2017-11-23T11:02:27.733Z,10.17
2017-11-23T11:04:54.790Z,10.90
2017-11-23T11:07:21.624Z,9.53
2017-11-23T11:09:48.575Z,9.50
2017-11-23T11:12:15.116Z,10.30
2017-11-23T11:14:41.652Z,10.27
2017-11-23T11:17:08.732Z,11.40
2017-11-23T11:19:35.344Z,26.33
2017-11-23T11:22:01.876Z,11.33
2017-11-23T11:24:28.722Z,10.10
2017-11-23T11:26:57.367Z,11.87
2017-11-23T11:29:26.468Z,10.57
2017-11-23T11:31:53.108Z,10.03
2017-11-23T11:34:19.470Z,10.40
2017-11-23T11:36:46.008Z,10.43
2017-11-23T11:39:12.935Z,10.43
2017-11-23T11:41:39.389Z,10.50
2017-11-23T11:44:05.823Z,10.60
2017-11-23T11:46:32.462Z,9.63
2017-11-23T11:48:59.764Z,10.57
2017-11-23T11:51:26.265Z,11.17
2017-11-23T11:53:53.200Z,10.60
2017-11-23T11:56:19.944Z,11.80
2017-11-23T11:58:46.692Z,10.53
2017-11-23T12:01:13.225Z,11.17
2017-11-23T12:03:40.585Z,11.40
2017-11-23T12:06:07.113Z,11.60
2017-11-23T12:08:33.652Z,10.70
2017-11-23T12:11:00.291Z,11.30
2017-11-23T12:13:26.929Z,11.20
2017-11-23T12:15:53.476Z,11.60
2017-11-23T12:18:20.210Z,10.50
2017-11-23T12:20:46.818Z,10.67
2017-11-23T12:23:13.384Z,10.33
2017-11-23T12:25:40.442Z,10.67
2017-11-23T12:28:07.075Z,10.50
2017-11-23T12:30:33.719Z,10.17
2017-11-23T12:33:00.456Z,10.80
2017-11-23T12:35:27.044Z,10.63
2017-11-23T12:37:53.482Z,11.93
2017-11-23T12:40:20.477Z,13.80
2017-11-23T12:42:47.121Z,10.80
2017-11-23T12:45:13.663Z,10.30
2017-11-23T12:47:40.840Z,10.50
2017-11-23T12:50:07.449Z,10.73
2017-11-23T12:52:33.864Z,10.97
2017-11-23T12:55:00.620Z,10.30
2017-11-23T12:57:27.054Z,10.70
2017-11-23T12:59:53.490Z,10.97
2017-11-23T13:02:19.933Z,11.10
2017-11-23T13:04:46.358Z,10.70
2017-11-23T13:07:13.203Z,10.30
2017-11-23T13:09:39.747Z,10.10
2017-11-23T13:12:06.695Z,11.40
2017-11-23T13:14:33.137Z,11.23
2017-11-23T13:16:59.965Z,10.70
2017-11-23T13:19:26.505Z,10.77
2017-11-23T13:21:52.938Z,10.40
2017-11-23T13:24:19.985Z,10.10
2017-11-23T13:26:46.736Z,11.37
2017-11-23T13:29:13.330Z,11.40
2017-11-23T13:36:43.511Z,11.10
2017-11-23T13:46:45.105Z,11.67
2017-11-23T13:49:11.675Z,12.37
2017-11-23T13:51:38.212Z,11.77
2017-11-23T13:54:04.684Z,11.87
2017-11-23T13:56:31.191Z,12.23
2017-11-23T13:58:57.720Z,11.67
2017-11-23T14:01:24.271Z,13.10
2017-11-23T14:03:51.376Z,13.20
2017-11-23T14:06:17.846Z,13.07
2017-11-23T14:08:44.175Z,15.20
2017-11-23T14:11:10.541Z,13.47
2017-11-23T14:13:37.054Z,14.77
2017-11-23T14:16:03.426Z,15.13
2017-11-23T14:18:30.017Z,14.20
2017-11-23T14:20:56.562Z,18.30
2017-11-23T14:23:22.988Z,17.67
2017-11-23T14:25:49.640Z,17.53
2017-11-23T14:28:16.882Z,17.13
2017-11-23T14:30:43.425Z,16.90
2017-11-23T14:33:09.997Z,17.70
2017-11-23T14:35:36.554Z,17.43
2017-11-23T14:38:03.030Z,19.57
2017-11-23T14:40:29.398Z,19.27
2017-11-23T14:42:55.871Z,18.00
2017-11-23T14:45:22.615Z,18.17
2017-11-23T14:47:49.442Z,18.10
2017-11-23T14:50:16.598Z,21.53
2017-11-23T14:52:43.295Z,20.97
2017-11-23T14:55:09.923Z,21.90
2017-11-23T15:02:39.228Z,21.00
2017-11-23T15:05:05.601Z,22.73
2017-11-23T15:07:32.045Z,20.93
2017-11-23T15:09:58.582Z,22.60
2017-11-23T15:12:25.008Z,25.63
2017-11-23T15:14:51.373Z,27.17
2017-11-23T15:17:17.714Z,23.40
2017-11-23T15:19:44.209Z,23.80
2017-11-23T15:22:10.651Z,23.77
2017-11-23T15:24:37.180Z,25.17
2017-11-23T15:27:03.581Z,23.80
2017-11-23T15:29:30.153Z,20.97
2017-11-23T15:31:56.588Z,22.70
2017-11-23T15:34:23.030Z,23.53
2017-11-23T15:36:49.434Z,26.60
2017-11-23T15:39:15.821Z,25.80
2017-11-23T15:41:42.412Z,24.30
2017-11-23T15:44:08.992Z,26.93
2017-11-23T15:46:35.593Z,22.80
2017-11-23T15:49:02.048Z,24.10
2017-11-23T15:51:28.484Z,25.27
2017-11-23T15:53:55.021Z,29.23
2017-11-23T15:56:21.447Z,22.37
2017-11-23T15:58:48.085Z,22.63
2017-11-23T16:01:16.132Z,25.60
2017-11-23T16:03:42.534Z,25.07
2017-11-23T16:06:09.002Z,26.07
2017-11-23T16:08:35.444Z,24.80
2017-11-23T16:23:38.620Z,40.40
2017-11-23T16:26:05.055Z,39.60
2017-11-23T16:28:31.490Z,36.87
2017-11-23T16:30:57.931Z,36.10
2017-11-23T16:33:24.492Z,39.23
2017-11-23T16:35:54.599Z,35.83
2017-11-23T16:38:21.025Z,38.03
2017-11-23T16:40:47.461Z,38.23
2017-11-23T16:43:13.895Z,49.17
2017-11-23T16:50:21.517Z,38.60
2017-11-23T16:55:43.776Z,43.10
2017-11-23T16:58:10.234Z,42.37
2017-11-23T17:00:36.647Z,45.97
2017-11-23T17:03:03.111Z,45.50
2017-11-23T17:05:29.626Z,43.80
2017-11-23T17:07:56.056Z,44.67
2017-11-23T17:16:05.836Z,54.33
2017-11-23T17:21:10.486Z,60.57
2017-11-23T17:23:36.928Z,57.27
2017-11-23T17:26:03.362Z,61.10
2017-11-23T17:31:06.156Z,41.97
2017-11-23T17:33:32.692Z,44.47
2017-11-23T17:38:45.940Z,43.30
2017-11-23T17:46:02.071Z,42.03
2017-11-23T17:54:56.485Z,38.13
2017-11-23T17:57:22.935Z,39.60
2017-11-23T18:01:27.774Z,42.47
2017-11-23T18:03:54.236Z,38.73
2017-11-23T18:06:20.652Z,45.50
2017-11-23T18:08:47.087Z,51.27
2017-11-23T18:11:13.420Z,48.57
2017-11-23T18:13:39.752Z,46.07
2017-11-23T18:22:21.387Z,40.80
2017-11-23T18:24:47.933Z,42.63
2017-11-23T18:27:14.359Z,40.40
2017-11-23T18:36:37.568Z,44.13
2017-11-23T19:04:18.537Z,55.50
2017-11-23T19:06:44.993Z,53.90
2017-11-23T19:11:52.177Z,53.37
2017-11-23T19:14:18.569Z,53.17
2017-11-23T19:21:51.442Z,55.70
2017-11-23T19:24:17.920Z,55.57
2017-11-23T19:26:44.370Z,57.40
2017-11-23T19:34:46.101Z,67.07
2017-11-23T19:37:12.530Z,67.37
2017-11-23T19:39:38.961Z,64.40
2017-11-23T19:42:05.396Z,57.73
2017-11-23T19:44:31.765Z,55.83
2017-11-23T19:53:45.608Z,51.80
2017-11-23T19:56:12.060Z,49.30
2017-11-23T19:58:38.498Z,41.77
2017-11-23T20:01:04.855Z,52.97
2017-11-23T20:07:59.652Z,50.10
2017-11-23T20:10:26.088Z,52.43
2017-11-23T20:18:09.770Z,42.27
2017-11-23T20:20:36.196Z,40.20
2017-11-23T20:28:53.877Z,41.80
2017-11-23T20:37:26.709Z,40.27
2017-11-23T20:42:31.763Z,43.97
2017-11-23T20:44:58.215Z,45.00
2017-11-23T20:53:04.767Z,42.53
2017-11-23T21:01:15.488Z,38.70
2017-11-23T21:06:29.893Z,39.77
2017-11-23T21:08:56.328Z,34.90
2017-11-23T21:11:22.868Z,40.17
2017-11-23T21:13:52.782Z,40.73
2017-11-23T21:16:19.216Z,40.67
2017-11-23T21:18:45.572Z,39.70
2017-11-23T21:21:11.999Z,37.80
2017-11-23T21:23:38.519Z,36.97
2017-11-23T21:26:04.947Z,35.70
2017-11-23T21:28:31.380Z,37.03
2017-11-23T21:30:57.711Z,37.83
2017-11-23T21:33:24.147Z,39.07
2017-11-23T21:35:50.613Z,38.70
2017-11-23T21:38:17.017Z,40.93
2017-11-23T21:40:43.349Z,38.80
2017-11-23T21:43:09.794Z,39.67
2017-11-23T21:45:36.186Z,40.00
2017-11-23T21:48:02.670Z,39.23
2017-11-23T21:50:29.839Z,38.53
2017-11-23T21:52:56.239Z,38.57
2017-11-23T21:55:22.682Z,38.97
2017-11-23T21:57:49.108Z,40.90
2017-11-23T22:00:15.546Z,41.77
2017-11-23T22:02:41.947Z,38.97
2017-11-23T22:05:08.381Z,40.40
2017-11-23T22:07:35.568Z,41.47
2017-11-23T22:10:01.898Z,37.63
2017-11-23T22:12:28.406Z,50.37
2017-11-23T22:14:54.876Z,39.10
2017-11-23T22:17:21.230Z,36.63
2017-11-23T22:19:47.633Z,36.67
2017-11-23T22:22:14.068Z,36.90
2017-11-23T22:24:41.220Z,38.00
2017-11-23T22:27:07.654Z,35.43
2017-11-23T22:29:34.089Z,37.03
2017-11-23T22:32:00.527Z,35.17
2017-11-23T22:34:26.968Z,35.20
2017-11-23T22:36:53.393Z,35.57
2017-11-23T22:39:19.828Z,35.97
2017-11-23T22:41:46.980Z,37.60
2017-11-23T22:44:13.423Z,36.90
2017-11-23T22:46:39.849Z,34.80
2017-11-23T22:49:06.289Z,38.83
2017-11-23T22:51:32.718Z,39.70
2017-11-23T22:53:59.161Z,39.47
2017-11-23T22:56:25.595Z,38.13
2017-11-23T22:58:52.849Z,35.23
2017-11-23T23:01:19.243Z,35.57
2017-11-23T23:03:45.718Z,36.57
2017-11-23T23:06:12.154Z,37.27
2017-11-23T23:13:02.669Z,35.37
2017-11-23T23:15:29.114Z,34.00
2017-11-23T23:17:55.544Z,35.53
2017-11-23T23:20:21.980Z,35.60
2017-11-23T23:22:48.422Z,35.87
2017-11-23T23:25:14.879Z,36.03
2017-11-23T23:27:41.282Z,34.20
2017-11-23T23:30:07.805Z,33.47
2017-11-23T23:32:34.257Z,33.90
2017-11-23T23:35:00.700Z,36.03
2017-11-23T23:37:27.115Z,33.60
2017-11-23T23:39:53.532Z,34.70
2017-11-23T23:47:33.045Z,35.53
2017-11-23T23:49:59.470Z,36.10
2017-11-23T23:52:25.904Z,36.30
2017-11-23T23:54:52.358Z,34.20
2017-11-23T23:57:18.773Z,32.70
2017-11-23T23:59:45.276Z,34.90
